createdAt,value
2023-03-27T00:01:05.919Z,3.34
2023-03-27T00:03:33.043Z,3.27
2023-03-27T00:06:00.848Z,3.21
2023-03-27T00:08:28.243Z,3.19
2023-03-27T00:10:55.624Z,3.14
2023-03-27T00:13:22.572Z,3.17
2023-03-27T00:15:53.058Z,3.21
2023-03-27T00:18:20.050Z,3.24
2023-03-27T00:20:46.830Z,3.19
2023-03-27T00:23:13.749Z,3.14
2023-03-27T00:25:40.555Z,3.11
2023-03-27T00:28:08.000Z,3.07
2023-03-27T00:30:35.233Z,3.00
2023-03-27T00:33:04.136Z,2.98
2023-03-27T00:35:30.993Z,2.98
2023-03-27T00:37:57.872Z,2.97
2023-03-27T00:40:24.583Z,3.05
2023-03-27T00:42:52.013Z,3.08
2023-03-27T00:45:20.901Z,3.09
2023-03-27T00:47:51.079Z,3.10
2023-03-27T00:50:22.532Z,3.13
2023-03-27T00:52:54.632Z,3.11
2023-03-27T00:55:22.754Z,3.06
2023-03-27T00:57:53.423Z,3.01
2023-03-27T01:00:20.629Z,2.90
2023-03-27T01:02:50.313Z,2.84
2023-03-27T01:05:20.338Z,2.78
2023-03-27T01:08:00.519Z,2.62
2023-03-27T01:10:40.048Z,2.62
2023-03-27T01:13:21.772Z,2.68
2023-03-27T01:15:53.854Z,2.71
2023-03-27T01:18:34.191Z,2.75
2023-03-27T01:21:31.026Z,2.83
2023-03-27T01:24:28.880Z,2.89
2023-03-27T01:27:01.609Z,2.91
2023-03-27T01:29:46.999Z,2.95
2023-03-27T01:32:54.225Z,3.06
2023-03-27T01:35:48.373Z,3.19
2023-03-27T01:38:48.246Z,3.22
2023-03-27T01:41:23.322Z,3.33
2023-03-27T01:43:56.724Z,3.42
2023-03-27T01:46:31.929Z,3.51
2023-03-27T01:49:05.641Z,3.59
2023-03-27T01:51:37.251Z,3.56
2023-03-27T01:54:10.000Z,3.48
2023-03-27T01:56:43.795Z,3.41
2023-03-27T01:59:14.465Z,3.37
2023-03-27T02:01:45.392Z,3.32
2023-03-27T02:04:17.736Z,3.35
2023-03-27T02:06:49.543Z,3.36
2023-03-27T02:09:21.328Z,3.40
2023-03-27T02:11:54.962Z,3.40
2023-03-27T02:14:26.452Z,3.37
2023-03-27T02:16:57.912Z,3.33
2023-03-27T02:19:30.573Z,3.25
2023-03-27T02:21:57.411Z,3.15
2023-03-27T02:24:24.140Z,3.10
2023-03-27T02:26:59.173Z,2.99
2023-03-27T02:29:40.508Z,2.95
2023-03-27T02:32:17.962Z,2.89
2023-03-27T02:34:53.190Z,2.86
2023-03-27T02:37:33.076Z,2.79
2023-03-27T02:40:28.100Z,2.72
2023-03-27T02:43:12.287Z,2.64
2023-03-27T02:45:47.766Z,2.60
2023-03-27T02:48:19.823Z,2.58
2023-03-27T02:50:50.648Z,2.49
2023-03-27T02:53:20.933Z,2.46
2023-03-27T02:55:52.109Z,2.41
2023-03-27T02:58:24.916Z,2.39
2023-03-27T03:00:59.750Z,2.30
2023-03-27T03:03:59.348Z,2.26
2023-03-27T03:06:40.901Z,2.25
2023-03-27T03:09:09.418Z,2.22
2023-03-27T03:11:38.024Z,2.22
2023-03-27T03:14:07.955Z,2.16
2023-03-27T03:16:34.689Z,2.09
2023-03-27T03:19:02.555Z,2.03
2023-03-27T03:21:29.634Z,2.09
2023-03-27T03:23:58.354Z,2.19
2023-03-27T03:26:27.394Z,2.30
2023-03-27T03:29:01.410Z,2.49
2023-03-27T03:31:37.002Z,2.62
2023-03-27T03:34:04.051Z,2.51
2023-03-27T03:36:30.851Z,2.55
2023-03-27T03:38:57.820Z,2.50
2023-03-27T03:41:24.857Z,2.47
2023-03-27T03:43:51.972Z,2.41
2023-03-27T03:46:18.793Z,2.32
2023-03-27T03:48:47.817Z,2.26
2023-03-27T03:51:14.702Z,2.19
2023-03-27T03:53:41.566Z,2.18
2023-03-27T03:56:09.174Z,2.16
2023-03-27T03:58:36.126Z,2.07
2023-03-27T04:01:05.320Z,1.99
2023-03-27T04:03:39.220Z,1.90
2023-03-27T04:06:09.708Z,1.90
2023-03-27T04:08:36.724Z,1.89
2023-03-27T04:11:03.944Z,1.92
2023-03-27T04:13:48.756Z,1.94
2023-03-27T04:16:26.220Z,1.90
2023-03-27T04:18:53.320Z,1.92
2023-03-27T04:21:23.146Z,1.92
2023-03-27T04:23:49.885Z,1.86
2023-03-27T04:26:22.757Z,1.87
2023-03-27T04:29:09.577Z,1.91
2023-03-27T04:32:02.598Z,1.92
2023-03-27T04:34:55.409Z,2.01
2023-03-27T04:37:43.804Z,2.07
2023-03-27T04:40:18.732Z,2.23
2023-03-27T04:42:45.774Z,2.21
2023-03-27T04:45:14.583Z,2.26
2023-03-27T04:47:44.546Z,2.24
2023-03-27T04:50:11.947Z,2.28
2023-03-27T04:52:39.145Z,2.34
2023-03-27T04:55:09.191Z,2.47
2023-03-27T04:57:36.085Z,2.59
2023-03-27T05:00:05.921Z,2.61
2023-03-27T05:02:45.128Z,2.58
2023-03-27T05:05:20.332Z,2.52
2023-03-27T05:07:49.023Z,2.44
2023-03-27T05:10:23.322Z,2.34
2023-03-27T05:12:53.296Z,2.33
2023-03-27T05:15:20.981Z,2.40
2023-03-27T05:17:48.415Z,2.44
2023-03-27T05:20:16.601Z,2.49
2023-03-27T05:22:44.186Z,2.57
2023-03-27T05:25:29.671Z,2.60
2023-03-27T05:27:58.079Z,2.57
2023-03-27T05:30:30.023Z,2.69
2023-03-27T05:33:23.379Z,2.71
2023-03-27T05:35:52.706Z,2.68
2023-03-27T05:38:20.211Z,2.63
2023-03-27T05:41:07.447Z,2.61
2023-03-27T05:43:39.558Z,2.56
2023-03-27T05:46:08.537Z,2.58
2023-03-27T05:48:36.598Z,2.62
2023-03-27T05:51:04.726Z,2.62
2023-03-27T05:53:31.893Z,2.68
2023-03-27T05:56:17.788Z,2.76
2023-03-27T05:58:53.302Z,2.81
2023-03-27T06:01:20.896Z,2.83
2023-03-27T06:03:48.158Z,2.79
2023-03-27T06:06:22.434Z,2.86
2023-03-27T06:08:54.452Z,2.88
2023-03-27T06:11:23.315Z,3.17
2023-03-27T06:13:51.033Z,4.24
2023-03-27T06:16:23.341Z,4.16
2023-03-27T06:19:13.027Z,4.53
2023-03-27T06:21:47.967Z,4.85
2023-03-27T06:24:14.793Z,4.34
2023-03-27T06:26:43.461Z,4.49
2023-03-27T06:29:10.993Z,4.82
2023-03-27T06:31:45.236Z,4.51
2023-03-27T06:34:18.032Z,4.28
2023-03-27T06:37:01.541Z,4.19
2023-03-27T06:39:37.293Z,4.04
2023-03-27T06:42:05.510Z,3.77
2023-03-27T06:44:55.643Z,3.68
2023-03-27T06:47:54.813Z,3.47
2023-03-27T06:50:34.746Z,3.53
2023-03-27T06:53:05.868Z,3.79
2023-03-27T06:55:48.294Z,4.15
2023-03-27T06:58:17.037Z,4.42
2023-03-27T07:00:44.447Z,4.22
2023-03-27T07:03:18.291Z,4.07
2023-03-27T07:06:06.029Z,4.21
2023-03-27T07:08:41.892Z,4.49
2023-03-27T07:11:12.188Z,4.53
2023-03-27T07:13:54.390Z,4.46
2023-03-27T07:16:25.693Z,4.35
2023-03-27T07:18:52.657Z,4.27
2023-03-27T07:21:19.446Z,4.28
2023-03-27T07:23:46.732Z,4.28
2023-03-27T07:26:17.735Z,4.38
2023-03-27T07:29:00.532Z,4.34
2023-03-27T07:31:37.330Z,4.50
2023-03-27T07:34:14.401Z,4.52
2023-03-27T07:37:05.476Z,4.94
2023-03-27T07:39:35.035Z,5.06
2023-03-27T07:42:02.176Z,4.94
2023-03-27T07:44:49.117Z,4.62
2023-03-27T07:47:16.410Z,4.24
2023-03-27T07:49:45.012Z,4.25
2023-03-27T07:52:15.262Z,4.16
2023-03-27T07:54:50.136Z,3.59
2023-03-27T07:57:19.880Z,3.02
2023-03-27T08:00:00.967Z,2.80
2023-03-27T08:02:43.762Z,3.04
2023-03-27T08:05:13.865Z,3.40
2023-03-27T08:07:46.833Z,3.57
2023-03-27T08:10:24.807Z,3.95
2023-03-27T08:12:57.881Z,4.76
2023-03-27T08:15:26.082Z,5.19
2023-03-27T08:17:53.393Z,5.67
2023-03-27T08:20:25.796Z,5.40
2023-03-27T08:22:53.239Z,5.15
2023-03-27T08:25:49.511Z,4.97
2023-03-27T08:28:17.630Z,5.11
2023-03-27T08:30:46.554Z,5.46
2023-03-27T08:33:14.328Z,5.65
2023-03-27T08:35:41.492Z,5.55
2023-03-27T08:38:20.042Z,5.43
2023-03-27T08:41:07.823Z,5.40
2023-03-27T08:43:44.089Z,5.46
2023-03-27T08:46:20.145Z,5.52
2023-03-27T08:48:54.962Z,5.44
2023-03-27T08:51:26.096Z,5.73
2023-03-27T08:53:57.624Z,5.87
2023-03-27T08:56:28.430Z,6.09
2023-03-27T08:58:57.100Z,6.02
2023-03-27T09:01:36.199Z,6.01
2023-03-27T09:04:22.506Z,6.17
2023-03-27T09:06:58.755Z,6.46
2023-03-27T09:09:39.078Z,6.61
2023-03-27T09:12:20.273Z,6.17
2023-03-27T09:14:54.524Z,6.50
2023-03-27T09:17:27.953Z,7.45
2023-03-27T09:20:11.446Z,6.93
2023-03-27T09:22:43.287Z,6.38
2023-03-27T09:25:22.622Z,6.35
2023-03-27T09:28:01.392Z,7.08
2023-03-27T09:30:36.356Z,5.75
2023-03-27T09:33:24.827Z,5.00
2023-03-27T09:35:52.583Z,4.68
2023-03-27T09:38:26.886Z,5.31
2023-03-27T09:40:57.652Z,5.11
2023-03-27T09:43:30.142Z,5.18
2023-03-27T09:46:01.769Z,5.97
2023-03-27T09:48:36.239Z,6.70
2023-03-27T09:51:44.884Z,7.41
2023-03-27T09:54:30.212Z,8.34
2023-03-27T09:57:04.546Z,8.64
2023-03-27T09:59:33.620Z,9.17
2023-03-27T10:02:18.508Z,9.22
2023-03-27T10:05:00.120Z,9.44
2023-03-27T10:07:32.286Z,9.87
2023-03-27T10:10:26.086Z,8.78
2023-03-27T10:13:06.492Z,8.89
2023-03-27T10:15:41.811Z,8.38
2023-03-27T10:18:24.461Z,8.70
2023-03-27T10:20:58.581Z,8.80
2023-03-27T10:23:29.881Z,9.15
2023-03-27T10:26:00.631Z,10.06
2023-03-27T10:28:39.374Z,9.25
2023-03-27T10:31:28.120Z,8.79
2023-03-27T10:34:02.127Z,7.97
2023-03-27T10:36:48.971Z,7.93
2023-03-27T10:39:20.024Z,7.76
2023-03-27T10:41:55.087Z,7.39
2023-03-27T10:44:25.436Z,8.14
2023-03-27T10:46:56.895Z,7.79
2023-03-27T10:49:31.864Z,7.38
2023-03-27T10:52:10.643Z,6.49
2023-03-27T10:55:11.664Z,7.65
2023-03-27T10:57:40.484Z,7.17
2023-03-27T11:00:16.259Z,5.92
2023-03-27T11:02:54.887Z,5.52
2023-03-27T11:05:26.052Z,5.37
2023-03-27T11:08:01.177Z,6.08
2023-03-27T11:10:34.071Z,7.56
2023-03-27T11:13:04.338Z,8.35
2023-03-27T11:15:35.289Z,8.89
2023-03-27T11:18:06.605Z,9.20
2023-03-27T11:20:45.730Z,9.31
2023-03-27T11:23:30.508Z,9.67
2023-03-27T11:26:17.861Z,9.09
2023-03-27T11:28:54.140Z,8.79
2023-03-27T11:31:32.825Z,8.78
2023-03-27T11:34:03.808Z,8.96
2023-03-27T11:36:38.854Z,9.24
2023-03-27T11:39:22.148Z,8.74
2023-03-27T11:41:54.159Z,8.15
2023-03-27T11:44:22.076Z,8.74
2023-03-27T11:47:27.192Z,9.92
2023-03-27T11:50:12.558Z,10.25
2023-03-27T11:52:53.308Z,9.68
2023-03-27T11:55:53.234Z,9.56
2023-03-27T11:58:30.728Z,9.49
2023-03-27T12:01:05.164Z,8.35
2023-03-27T12:04:00.574Z,7.82
2023-03-27T12:06:51.041Z,7.00
2023-03-27T12:09:36.403Z,7.03
2023-03-27T12:12:57.401Z,8.84
2023-03-27T12:15:51.148Z,9.11
2023-03-27T12:18:36.428Z,9.02
2023-03-27T12:21:17.030Z,7.87
2023-03-27T12:24:17.671Z,7.22
2023-03-27T12:27:39.690Z,8.16
2023-03-27T12:30:36.718Z,8.90
2023-03-27T12:33:30.207Z,8.54
2023-03-27T12:36:01.171Z,7.53
2023-03-27T12:41:36.358Z,8.29
2023-03-27T12:44:18.818Z,8.13
2023-03-27T12:47:29.917Z,8.21
2023-03-27T12:50:45.880Z,8.37
2023-03-27T12:56:39.306Z,8.20
2023-03-27T12:59:21.309Z,8.58
2023-03-27T13:02:30.077Z,7.96
2023-03-27T13:05:27.506Z,8.13
2023-03-27T13:08:15.388Z,7.97
2023-03-27T13:11:02.308Z,6.82
2023-03-27T13:13:54.860Z,6.58
2023-03-27T13:16:35.198Z,6.59
2023-03-27T13:19:16.718Z,6.92
2023-03-27T13:22:15.133Z,7.34
2023-03-27T13:25:01.129Z,7.94
2023-03-27T13:27:42.137Z,7.64
2023-03-27T13:30:40.149Z,7.24
2023-03-27T13:33:23.698Z,7.48
2023-03-27T13:35:59.048Z,7.55
2023-03-27T13:38:44.890Z,7.76
2023-03-27T13:41:55.321Z,7.66
2023-03-27T13:44:41.525Z,7.65
2023-03-27T13:47:28.255Z,7.51
2023-03-27T13:50:14.587Z,7.47
2023-03-27T13:53:16.626Z,7.43
2023-03-27T13:56:34.497Z,8.16
2023-03-27T13:59:38.337Z,8.25
2023-03-27T14:02:35.842Z,8.27
2023-03-27T14:05:24.115Z,7.44
2023-03-27T14:08:28.401Z,6.86
2023-03-27T14:11:43.521Z,6.73
2023-03-27T14:14:40.538Z,6.55
2023-03-27T14:17:41.690Z,6.52
2023-03-27T14:20:22.220Z,6.89
2023-03-27T14:22:55.415Z,7.09
2023-03-27T14:25:29.945Z,6.92
2023-03-27T14:28:02.692Z,6.76
2023-03-27T14:30:39.906Z,7.20
2023-03-27T14:33:24.682Z,7.50
2023-03-27T14:36:01.621Z,7.65
2023-03-27T14:38:31.057Z,7.44
2023-03-27T14:40:59.549Z,7.31
2023-03-27T14:43:59.088Z,7.04
2023-03-27T14:46:26.103Z,7.25
2023-03-27T14:48:59.600Z,7.06
2023-03-27T14:51:34.856Z,6.75
2023-03-27T14:54:05.504Z,6.38
2023-03-27T14:56:45.307Z,6.68
2023-03-27T14:59:31.184Z,6.85
2023-03-27T15:02:01.771Z,7.11
2023-03-27T15:04:30.903Z,7.31
2023-03-27T15:07:17.870Z,7.28
2023-03-27T15:10:01.773Z,7.40
2023-03-27T15:12:51.221Z,6.77
2023-03-27T15:15:26.133Z,6.72
2023-03-27T15:17:54.707Z,6.39
2023-03-27T15:20:25.183Z,6.47
2023-03-27T15:22:57.338Z,6.31
2023-03-27T15:25:32.887Z,6.22
2023-03-27T15:28:05.225Z,6.16
2023-03-27T15:30:37.639Z,5.78
2023-03-27T15:33:08.032Z,5.68
2023-03-27T15:35:40.559Z,5.78
2023-03-27T15:38:13.594Z,5.85
2023-03-27T15:40:42.692Z,5.70
2023-03-27T15:43:22.573Z,5.58
2023-03-27T15:46:12.003Z,5.66
2023-03-27T15:48:40.455Z,5.73
2023-03-27T15:51:10.053Z,5.85
2023-03-27T15:53:39.173Z,5.75
2023-03-27T15:56:19.322Z,5.82
2023-03-27T15:58:50.733Z,5.80
2023-03-27T16:01:20.511Z,5.84
2023-03-27T16:03:48.318Z,5.95
2023-03-27T16:06:27.021Z,5.86
2023-03-27T16:08:55.514Z,5.99
2023-03-27T16:11:41.362Z,5.87
2023-03-27T16:14:22.088Z,5.74
2023-03-27T16:16:48.969Z,5.55
2023-03-27T16:19:15.809Z,5.45
2023-03-27T16:21:54.728Z,5.40
2023-03-27T16:24:23.150Z,5.35
2023-03-27T16:26:50.363Z,5.30
2023-03-27T16:29:18.596Z,5.27
2023-03-27T16:31:45.530Z,5.24
2023-03-27T16:34:22.228Z,5.23
2023-03-27T16:36:50.247Z,5.26
2023-03-27T16:39:16.971Z,5.31
2023-03-27T16:41:45.512Z,5.38
2023-03-27T16:44:12.284Z,5.50
2023-03-27T16:46:39.079Z,5.63
2023-03-27T16:49:05.851Z,5.65
2023-03-27T16:51:32.744Z,5.61
2023-03-27T16:53:59.478Z,5.52
2023-03-27T16:56:26.284Z,5.57
2023-03-27T16:58:54.383Z,5.67
2023-03-27T17:01:21.550Z,5.80
2023-03-27T17:03:48.356Z,5.98
2023-03-27T17:06:15.265Z,6.09
2023-03-27T17:08:41.995Z,6.00
2023-03-27T17:11:11.212Z,5.93
2023-03-27T17:13:42.366Z,5.79
2023-03-27T17:16:11.421Z,5.78
2023-03-27T17:18:38.225Z,5.80
2023-03-27T17:21:07.618Z,5.76
2023-03-27T17:26:22.649Z,5.48
2023-03-27T17:28:49.951Z,5.41
2023-03-27T17:31:18.269Z,5.38
2023-03-27T17:33:45.720Z,5.37
2023-03-27T17:36:15.604Z,5.35
2023-03-27T17:38:42.680Z,5.34
2023-03-27T17:41:10.532Z,5.29
2023-03-27T17:43:37.786Z,5.28
2023-03-27T17:46:05.262Z,5.26
2023-03-27T17:48:34.251Z,5.19
2023-03-27T17:51:08.858Z,5.08
2023-03-27T17:53:37.785Z,5.02
2023-03-27T17:56:05.714Z,4.94
2023-03-27T17:58:39.856Z,4.79
2023-03-27T18:04:02.491Z,4.42
2023-03-27T18:06:29.583Z,4.26
2023-03-27T18:12:01.287Z,4.04
2023-03-27T18:14:28.162Z,3.99
2023-03-27T18:16:55.071Z,3.97
2023-03-27T18:19:23.178Z,3.92
2023-03-27T18:21:50.043Z,3.78
2023-03-27T18:24:19.937Z,3.78
2023-03-27T18:26:46.846Z,3.64
2023-03-27T18:29:14.496Z,3.59
2023-03-27T18:31:41.401Z,3.54
2023-03-27T18:34:08.558Z,3.50
2023-03-27T18:36:36.807Z,3.47
2023-03-27T18:39:03.967Z,3.44
2023-03-27T18:41:30.881Z,3.48
2023-03-27T18:43:57.654Z,3.51
2023-03-27T18:46:24.425Z,3.49
2023-03-27T18:48:51.203Z,3.49
2023-03-27T18:51:18.897Z,3.50
2023-03-27T18:53:49.875Z,3.44
2023-03-27T18:56:17.172Z,3.45
2023-03-27T18:58:44.045Z,3.41
2023-03-27T19:01:10.933Z,3.43
2023-03-27T19:03:42.587Z,3.47
2023-03-27T19:06:19.655Z,3.47
2023-03-27T19:08:48.401Z,3.52
2023-03-27T19:11:15.755Z,3.55
2023-03-27T19:14:16.020Z,3.57
2023-03-27T19:17:01.360Z,3.61
2023-03-27T19:19:51.662Z,3.64
2023-03-27T19:22:50.527Z,3.71
2023-03-27T19:25:29.007Z,3.80
2023-03-27T19:27:56.488Z,3.97
2023-03-27T19:30:24.218Z,4.06
2023-03-27T19:32:54.584Z,3.97
2023-03-27T19:35:21.355Z,3.98
2023-03-27T19:37:48.290Z,3.98
2023-03-27T19:40:15.076Z,3.91
2023-03-27T19:42:43.194Z,3.78
2023-03-27T19:45:10.611Z,3.77
2023-03-27T19:47:37.575Z,3.60
2023-03-27T19:50:07.615Z,3.49
2023-03-27T19:52:57.396Z,3.43
2023-03-27T19:55:32.717Z,3.44
2023-03-27T19:58:01.642Z,3.67
2023-03-27T20:00:30.168Z,3.82
2023-03-27T20:02:58.704Z,3.78
2023-03-27T20:05:26.103Z,3.74
2023-03-27T20:07:53.232Z,3.69
2023-03-27T20:10:20.039Z,3.66
2023-03-27T20:12:46.804Z,3.69
2023-03-27T20:15:14.965Z,3.66
2023-03-27T20:17:42.896Z,3.63
2023-03-27T20:20:10.626Z,3.60
2023-03-27T20:22:50.092Z,3.52
2023-03-27T20:25:21.832Z,3.48
2023-03-27T20:27:49.147Z,3.41
2023-03-27T20:30:17.423Z,3.34
2023-03-27T20:32:44.649Z,3.27
2023-03-27T20:35:22.865Z,3.23
2023-03-27T20:37:51.708Z,3.10
2023-03-27T20:40:23.278Z,3.06
2023-03-27T20:42:50.532Z,3.07
2023-03-27T20:45:18.848Z,3.07
2023-03-27T20:47:46.788Z,3.09
2023-03-27T20:50:14.436Z,3.02
2023-03-27T20:52:42.011Z,3.04
2023-03-27T20:55:11.955Z,3.04
2023-03-27T20:57:42.540Z,2.98
2023-03-27T21:00:11.545Z,2.99
2023-03-27T21:02:40.056Z,3.01
2023-03-27T21:05:07.588Z,3.01
2023-03-27T21:07:37.232Z,3.01
2023-03-27T21:10:04.607Z,2.97
2023-03-27T21:12:31.992Z,2.87
2023-03-27T21:14:59.093Z,2.84
2023-03-27T21:17:25.847Z,2.84
2023-03-27T21:19:55.026Z,2.88
2023-03-27T21:22:22.028Z,2.86
2023-03-27T21:24:48.746Z,2.89
2023-03-27T21:27:15.862Z,2.82
2023-03-27T21:29:43.002Z,2.70
2023-03-27T21:32:10.127Z,2.55
2023-03-27T21:34:37.078Z,2.46
2023-03-27T21:37:06.367Z,2.37
2023-03-27T21:39:35.670Z,2.30
2023-03-27T21:42:03.073Z,2.20
2023-03-27T21:44:29.921Z,2.17
2023-03-27T21:46:56.636Z,2.21
2023-03-27T21:49:23.581Z,2.21
2023-03-27T21:51:53.459Z,2.17
2023-03-27T21:54:21.684Z,2.21
2023-03-27T21:56:48.538Z,2.21
2023-03-27T21:59:15.563Z,2.16
2023-03-27T22:01:42.390Z,2.22
2023-03-27T22:04:09.988Z,2.31
2023-03-27T22:06:37.950Z,2.29
2023-03-27T22:09:04.694Z,2.19
2023-03-27T22:11:33.213Z,2.10
2023-03-27T22:14:00.374Z,2.03
2023-03-27T22:16:27.522Z,2.04
2023-03-27T22:18:54.626Z,1.92
2023-03-27T22:21:23.600Z,1.84
2023-03-27T22:23:51.889Z,1.78
2023-03-27T22:26:19.375Z,1.70
2023-03-27T22:28:48.011Z,1.56
2023-03-27T22:31:14.865Z,1.49
2023-03-27T22:33:41.684Z,1.49
2023-03-27T22:36:10.125Z,1.47
2023-03-27T22:38:37.041Z,1.42
2023-03-27T22:41:07.004Z,1.43
2023-03-27T22:43:34.932Z,1.32
2023-03-27T22:46:07.158Z,1.30
2023-03-27T22:48:34.507Z,1.41
2023-03-27T22:51:02.183Z,1.38
2023-03-27T22:53:29.654Z,1.42
2023-03-27T22:55:58.235Z,1.39
2023-03-27T22:58:26.101Z,1.35
2023-03-27T23:00:54.212Z,1.30
2023-03-27T23:03:24.041Z,1.30
2023-03-27T23:05:51.407Z,1.17
2023-03-27T23:08:21.055Z,1.17
2023-03-27T23:10:54.876Z,1.08
2023-03-27T23:13:22.076Z,1.00
2023-03-27T23:15:49.634Z,0.95
2023-03-27T23:18:16.401Z,0.89
2023-03-27T23:20:44.882Z,0.90
2023-03-27T23:23:11.666Z,0.90
2023-03-27T23:25:40.058Z,0.93
2023-03-27T23:28:08.654Z,0.91
2023-03-27T23:30:35.672Z,0.85
2023-03-27T23:33:03.961Z,0.90
2023-03-27T23:35:30.924Z,0.82
2023-03-27T23:37:59.455Z,0.84
2023-03-27T23:40:26.330Z,0.73
2023-03-27T23:42:53.592Z,0.69
2023-03-27T23:45:20.424Z,0.56
2023-03-27T23:47:47.526Z,0.53
2023-03-27T23:50:14.356Z,0.55
2023-03-27T23:52:41.110Z,0.55
2023-03-27T23:55:10.378Z,0.52
2023-03-27T23:57:37.167Z,0.42
